Terminal Aerodrome Forecast
Issued by NWS

Current Version | Previous Version | Graphics & Text | Print | Product List | Glossary On
Versions: 1 2 3 4 5 6 7 8 9 10 11 12 13 14 15
000
FTUS41 KILN 232339
TAFLCK
TAF
KLCK 232339Z 2400/2424 15005KT P6SM BKN100
     FM240800 18008KT P6SM SCT080 OVC150 WS020/21040KT
     FM241400 19012G24KT P6SM OVC040
     FM242300 20012KT P6SM BKN040=

USA.gov is the U.S. government's official web portal to all federal, state and local government web resources and services.